Time;durP1;ratioP1;P1;durP2;ratioP2;P2;SDS_P1;SDS_P2;PMS_P1;PMS_P2;Temp;Humidity;BMP_temperature;BMP_pressure;BME280_temperature;BME280_humidity;BME280_pressure;Samples;Min_cycle;Max_cycle;Signal;HPM_P1;HPM_P2
2022/06/14 00:01:58;;;;;;;6.93;3.23;;;12.80;1.00;;;;;;5072487;28;20228;-69
2022/06/14 00:04:23;;;;;;;10.43;2.90;;;12.80;1.00;;;;;;5073162;28;20175;-68
2022/06/14 00:06:49;;;;;;;7.30;3.00;;;12.80;1.00;;;;;;5073126;28;20199;-69
2022/06/14 00:09:15;;;;;;;9.57;2.90;;;12.70;1.00;;;;;;5073144;28;20260;-69
2022/06/14 00:11:41;;;;;;;8.70;2.93;;;12.70;1.00;;;;;;5073208;28;20294;-68
2022/06/14 00:14:09;;;;;;;7.70;3.17;;;12.70;1.00;;;;;;5073130;28;20212;-68
2022/06/14 00:16:35;;;;;;;10.40;2.70;;;12.70;1.00;;;;;;5072804;28;20229;-68
2022/06/14 00:19:04;;;;;;;5.70;3.17;;;12.70;1.00;;;;;;5073008;28;20172;-69
2022/06/14 00:21:31;;;;;;;6.93;3.07;;;12.70;1.00;;;;;;5073189;28;20157;-68
2022/06/14 00:23:57;;;;;;;7.50;3.40;;;12.70;1.00;;;;;;5073117;28;20180;-69
2022/06/14 00:26:22;;;;;;;7.07;3.23;;;12.70;1.00;;;;;;5072441;28;20160;-70
2022/06/14 00:28:48;;;;;;;4.93;3.17;;;12.60;1.00;;;;;;5073463;28;20172;-68
2022/06/14 00:31:17;;;;;;;7.20;3.13;;;12.60;1.00;;;;;;5072806;28;20169;-70
2022/06/14 00:33:43;;;;;;;5.27;3.17;;;12.60;1.00;;;;;;5073061;28;20168;-69
2022/06/14 00:36:28;;;;;;;9.43;3.60;;;12.50;1.00;;;;;;5073111;28;20179;-69
2022/06/14 00:38:55;;;;;;;9.17;3.57;;;12.40;1.00;;;;;;5073103;28;20241;-70
2022/06/14 00:41:43;;;;;;;6.87;2.97;;;12.50;1.00;;;;;;5072990;28;20179;-70
2022/06/14 00:44:21;;;;;;;9.40;3.40;;;12.40;1.00;;;;;;5072851;28;20165;-69
2022/06/14 00:47:11;;;;;;;8.33;3.03;;;12.30;1.00;;;;;;5072560;28;20176;-68
2022/06/14 00:49:49;;;;;;;7.57;3.10;;;12.30;1.00;;;;;;5072874;28;20172;-69
2022/06/14 00:52:20;;;;;;;9.13;2.97;;;12.20;1.00;;;;;;5072698;28;20196;-69
2022/06/14 00:54:51;;;;;;;10.10;3.20;;;12.20;1.00;;;;;;5072951;28;20161;-69
2022/06/14 00:57:26;;;;;;;6.67;2.90;;;12.30;1.00;;;;;;5072716;28;20259;-70
2022/06/14 01:00:15;;;;;;;7.53;3.70;;;12.30;1.00;;;;;;5072381;28;20196;-69
2022/06/14 01:02:46;;;;;;;9.33;3.53;;;12.20;1.00;;;;;;5072429;28;20185;-68
2022/06/14 01:05:18;;;;;;;8.07;3.30;;;12.30;1.00;;;;;;5072654;28;20671;-69
2022/06/14 01:07:48;;;;;;;7.33;2.70;;;12.40;1.00;;;;;;5072793;28;20169;-69
2022/06/14 01:10:27;;;;;;;10.07;3.07;;;12.50;1.00;;;;;;5072535;28;20188;-68
2022/06/14 01:12:56;;;;;;;5.17;2.67;;;12.60;1.00;;;;;;5072550;28;20260;-68
2022/06/14 01:15:28;;;;;;;6.00;2.33;;;12.70;1.00;;;;;;5071955;28;20169;-68
2022/06/14 01:18:17;;;;;;;5.27;2.27;;;12.80;1.00;;;;;;5072657;28;20169;-69
2022/06/14 01:20:44;;;;;;;3.47;2.07;;;12.80;1.00;;;;;;5070798;28;20208;-69
2022/06/14 01:23:13;;;;;;;3.83;2.23;;;12.80;1.00;;;;;;5072193;28;20172;-69
2022/06/14 01:25:43;;;;;;;4.43;2.27;;;12.70;1.00;;;;;;5072422;28;20291;-68
2022/06/14 01:28:10;;;;;;;5.97;1.97;;;12.70;1.00;;;;;;5072618;28;20177;-68
2022/06/14 01:30:43;;;;;;;3.27;2.17;;;12.70;1.00;;;;;;5072314;28;20242;-68
2022/06/14 01:33:43;;;;;;;4.23;2.00;;;12.70;1.00;;;;;;5072464;28;20294;-68
2022/06/14 01:36:33;;;;;;;7.33;2.10;;;12.80;1.00;;;;;;5049911;28;20259;-68
2022/06/14 01:39:01;;;;;;;5.00;2.17;;;12.70;1.00;;;;;;5075899;28;20168;-68
2022/06/14 01:41:30;;;;;;;6.00;2.33;;;12.70;1.00;;;;;;5075910;28;20202;-68
2022/06/14 01:43:59;;;;;;;3.33;2.23;;;12.60;1.00;;;;;;5075762;28;20160;-69
2022/06/14 01:46:28;;;;;;;3.30;2.20;;;12.60;1.00;;;;;;5075681;28;20261;-69
2022/06/14 01:52:26;;;;;;;5.37;2.07;;;12.60;1.00;;;;;;5075949;28;20256;-69
2022/06/14 01:55:13;;;;;;;4.50;2.23;;;12.50;1.00;;;;;;5075657;28;20180;-68
2022/06/14 01:57:44;;;;;;;5.13;2.20;;;12.50;1.00;;;;;;5075943;28;20169;-69
2022/06/14 02:00:19;;;;;;;4.00;2.20;;;12.50;1.00;;;;;;5075690;28;20164;-69
2022/06/14 02:05:54;;;;;;;6.27;2.80;;;12.50;1.00;;;;;;5075424;28;20206;-69
2022/06/14 02:08:24;;;;;;;7.23;3.37;;;12.50;1.00;;;;;;5075704;28;20180;-69
2022/06/14 02:11:12;;;;;;;10.53;4.40;;;12.50;1.00;;;;;;5075506;28;20172;-69
2022/06/14 02:13:46;;;;;;;4.70;2.50;;;12.40;1.00;;;;;;5074999;28;20226;-69
2022/06/14 02:16:28;;;;;;;9.10;3.00;;;12.40;1.00;;;;;;5075352;28;20171;-69
2022/06/14 02:19:03;;;;;;;6.33;2.80;;;12.40;1.00;;;;;;5075463;28;20226;-68
2022/06/14 02:21:43;;;;;;;7.77;2.40;;;12.40;1.00;;;;;;5075319;28;20168;-67
2022/06/14 02:24:29;;;;;;;10.10;2.93;;;12.40;1.00;;;;;;5075151;28;20169;-69
2022/06/14 02:27:10;;;;;;;7.93;2.70;;;12.30;1.00;;;;;;5074986;28;20662;-69
2022/06/14 02:29:41;;;;;;;6.63;2.83;;;12.30;1.00;;;;;;5075312;28;20172;-69
2022/06/14 02:32:50;;;;;;;8.37;2.97;;;12.30;1.00;;;;;;5074926;28;20303;-68
2022/06/14 02:35:23;;;;;;;5.57;2.60;;;12.30;1.00;;;;;;5066522;28;20234;-68
2022/06/14 02:38:11;;;;;;;7.67;3.60;;;12.30;1.00;;;;;;5074884;28;20196;-69
2022/06/14 02:40:49;;;;;;;11.23;5.80;;;12.40;1.00;;;;;;5074897;28;20695;-69
2022/06/14 02:43:24;;;;;;;4.80;2.93;;;12.40;1.00;;;;;;5074448;28;20180;-68
2022/06/14 02:45:57;;;;;;;7.20;3.30;;;12.30;1.00;;;;;;5074643;28;20214;-68
2022/06/14 02:48:34;;;;;;;6.20;2.50;;;12.20;1.00;;;;;;5074329;28;20161;-68
2022/06/14 02:51:06;;;;;;;6.37;2.23;;;12.20;1.00;;;;;;5074294;28;20230;-69
2022/06/14 02:53:48;;;;;;;5.07;2.83;;;12.20;1.00;;;;;;5074319;28;20208;-69
2022/06/14 02:56:23;;;;;;;7.77;2.63;;;12.20;1.00;;;;;;5072999;28;20259;-69
2022/06/14 02:59:03;;;;;;;5.97;2.40;;;12.10;1.00;;;;;;5074565;28;20196;-68
2022/06/14 03:01:47;;;;;;;6.83;2.60;;;12.10;1.00;;;;;;5074277;28;20222;-69
2022/06/14 03:04:18;;;;;;;4.77;2.30;;;12.10;1.00;;;;;;5074256;28;20175;-69
2022/06/14 03:07:10;;;;;;;8.80;2.97;;;12.10;1.00;;;;;;5074232;28;20204;-69
2022/06/14 03:09:39;;;;;;;4.27;2.13;;;12.10;1.00;;;;;;5074356;28;20187;-69
2022/06/14 03:12:38;;;;;;;5.20;2.60;;;12.10;1.00;;;;;;5073699;28;20235;-68
2022/06/14 03:15:09;;;;;;;4.37;2.73;;;12.10;1.00;;;;;;5073703;28;20183;-68
2022/06/14 03:17:58;;;;;;;6.47;2.80;;;12.00;1.00;;;;;;5074028;28;20177;-69
2022/06/14 03:20:32;;;;;;;5.97;2.90;;;12.00;1.00;;;;;;5073879;28;20168;-68
2022/06/14 03:23:11;;;;;;;4.93;3.57;;;12.00;1.00;;;;;;5072347;28;20172;-69
2022/06/14 03:26:01;;;;;;;7.53;2.77;;;12.10;1.00;;;;;;5073475;28;20195;-68
2022/06/14 03:28:50;;;;;;;5.67;2.57;;;12.00;1.00;;;;;;5072661;28;20183;-68
2022/06/14 03:31:43;;;;;;;7.40;2.47;;;12.00;1.00;;;;;;5073633;28;20564;-68
2022/06/14 03:34:21;;;;;;;7.67;2.60;;;12.10;1.00;;;;;;5072249;28;20181;-69
2022/06/14 03:36:46;;;;;;;5.43;2.80;;;12.10;1.00;;;;;;5072556;28;20203;-68
2022/06/14 03:39:16;;;;;;;5.73;2.77;;;12.10;1.00;;;;;;5073764;28;20559;-69
2022/06/14 03:41:48;;;;;;;11.47;2.60;;;12.10;1.00;;;;;;5073414;28;20180;-68
2022/06/14 03:44:15;;;;;;;3.20;2.57;;;12.10;1.00;;;;;;5073627;28;20627;-68
2022/06/14 03:47:07;;;;;;;7.10;2.70;;;12.20;1.00;;;;;;5073262;28;20190;-68
2022/06/14 03:49:32;;;;;;;6.67;3.03;;;12.40;1.00;;;;;;5073491;28;20183;-67
2022/06/14 03:52:22;;;;;;;6.90;2.67;;;12.90;1.00;;;;;;5073101;28;20216;-68
2022/06/14 03:54:55;;;;;;;10.97;2.83;;;13.50;1.00;;;;;;5072660;28;20245;-67
2022/06/14 03:57:54;;;;;;;2.87;2.10;;;14.20;1.00;;;;;;5073111;28;20160;-68
2022/06/14 04:00:24;;;;;;;3.97;2.33;;;14.80;99.90;;;;;;5070988;28;20186;-69
2022/06/14 04:03:27;;;;;;;7.87;2.30;;;15.10;1.00;;;;;;5073475;28;20195;-68
2022/06/14 04:06:14;;;;;;;7.87;2.63;;;15.00;99.90;;;;;;5072985;28;20196;-68
2022/06/14 04:09:05;;;;;;;9.07;3.23;;;15.40;1.00;;;;;;5072797;28;20169;-69
2022/06/14 04:11:37;;;;;;;9.27;2.70;;;15.80;99.90;;;;;;5072977;28;20168;-69
2022/06/14 04:14:14;;;;;;;9.87;2.70;;;16.10;1.00;;;;;;5072812;28;20291;-69
2022/06/14 04:16:57;;;;;;;7.80;2.67;;;16.00;1.00;;;;;;5073080;28;20160;-69
2022/06/14 04:19:41;;;;;;;3.30;2.27;;;16.70;99.90;;;;;;5071717;28;20654;-69
2022/06/14 04:22:20;;;;;;;6.03;2.33;;;16.80;99.90;;;;;;5072696;28;20259;-69
2022/06/14 04:24:51;;;;;;;8.07;2.30;;;17.00;99.90;;;;;;5072311;28;20179;-69
2022/06/14 04:27:23;;;;;;;5.30;2.60;;;18.10;1.00;;;;;;5072752;28;20172;-69
2022/06/14 04:30:01;;;;;;;6.30;2.63;;;18.30;99.90;;;;;;5072773;28;20223;-69
2022/06/14 04:32:53;;;;;;;4.77;2.60;;;18.00;1.00;;;;;;5072524;28;20216;-69
2022/06/14 04:35:36;;;;;;;3.07;2.00;;;18.40;99.90;;;;;;5072422;28;20164;-68
2022/06/14 04:38:12;;;;;;;6.65;2.58;;;18.80;45.30;;;;;;5072240;28;20270;-69
2022/06/14 04:40:45;;;;;;;3.97;2.70;;;19.20;1.00;;;;;;5072691;28;20168;-69
2022/06/14 04:43:39;;;;;;;5.25;2.60;;;19.80;1.00;;;;;;5072558;28;20168;-69
2022/06/14 04:46:19;;;;;;;5.70;2.63;;;19.60;1.00;;;;;;5072671;28;20165;-69
2022/06/14 04:48:51;;;;;;;5.78;2.78;;;19.60;1.00;;;;;;5072555;28;20172;-69
2022/06/14 04:51:27;;;;;;;4.57;3.08;;;19.60;1.00;;;;;;5072641;28;20165;-70
2022/06/14 04:54:13;;;;;;;8.50;3.15;;;19.80;1.00;;;;;;5071206;28;20204;-70
2022/06/14 04:56:46;;;;;;;4.80;2.53;;;20.10;1.00;;;;;;5051415;28;20187;-70
2022/06/14 04:59:25;;;;;;;5.97;2.90;;;19.30;1.00;;;;;;5071535;28;20247;-70
2022/06/14 05:01:56;;;;;;;5.72;3.00;;;18.80;1.00;;;;;;5071792;28;20255;-70
2022/06/14 05:04:30;;;;;;;4.03;3.25;;;19.20;1.00;;;;;;5071920;28;20208;-71
2022/06/14 05:07:10;;;;;;;7.72;3.20;;;19.30;1.00;;;;;;5071593;28;20262;-71
2022/06/14 05:09:44;;;;;;;9.02;3.80;;;19.80;1.00;;;;;;5070512;28;20173;-70
2022/06/14 05:12:23;;;;;;;11.45;3.97;;;20.60;1.00;;;;;;5074475;28;20208;-71
2022/06/14 05:14:53;;;;;;;6.43;4.10;;;20.30;1.00;;;;;;5075107;28;20203;-70
2022/06/14 05:17:39;;;;;;;8.25;3.90;;;19.70;1.00;;;;;;5075601;28;20172;-70
2022/06/14 05:20:35;;;;;;;5.80;3.60;;;20.20;1.00;;;;;;5075384;28;20168;-71
2022/06/14 05:23:22;;;;;;;5.78;3.60;;;20.90;99.90;;;;;;5069686;28;20215;-70
2022/06/14 05:26:07;;;;;;;7.60;3.80;;;19.90;99.90;;;;;;5073438;28;20196;-72
2022/06/14 05:28:37;;;;;;;7.18;3.20;;;20.90;99.90;;;;;;5074662;28;20175;-71
2022/06/14 05:31:17;;;;;;;6.93;2.92;;;21.60;99.90;;;;;;5075069;28;20179;-71
2022/06/14 05:34:03;;;;;;;8.18;3.08;;;22.50;99.90;;;;;;5074762;28;20208;-72
2022/06/14 05:36:36;;;;;;;5.43;3.10;;;22.70;99.90;;;;;;5073814;28;20164;-73
2022/06/14 05:39:14;;;;;;;4.72;2.67;;;22.60;99.90;;;;;;5075106;28;20177;-73
2022/06/14 05:41:45;;;;;;;6.80;2.65;;;21.20;99.90;;;;;;5073643;28;20168;-72
2022/06/14 05:44:15;;;;;;;6.45;2.42;;;20.60;99.90;;;;;;5073494;28;20259;-71
2022/06/14 05:46:50;;;;;;;8.63;2.80;;;21.00;99.90;;;;;;5074850;28;20165;-73
2022/06/14 05:49:18;;;;;;;7.18;2.70;;;22.10;99.90;;;;;;5074564;28;20607;-73
2022/06/14 05:51:50;;;;;;;5.15;2.72;;;22.40;99.90;;;;;;5074236;28;20616;-72
2022/06/14 05:54:40;;;;;;;7.05;3.13;;;21.70;99.90;;;;;;5074160;28;20172;-72
2022/06/14 05:57:27;;;;;;;5.55;2.35;;;21.90;99.90;;;;;;5073239;28;20532;-73
2022/06/14 06:00:06;;;;;;;6.20;2.42;;;22.20;99.90;;;;;;5074751;28;20310;-74
2022/06/14 06:02:44;;;;;;;6.30;2.42;;;21.80;99.90;;;;;;5073843;28;20220;-74
2022/06/14 06:05:37;;;;;;;6.05;2.40;;;22.40;99.90;;;;;;5073382;28;20211;-73
2022/06/14 06:08:23;;;;;;;5.03;2.17;;;22.60;99.90;;;;;;5074403;28;20172;-73
2022/06/14 06:10:54;;;;;;;2.90;2.03;;;23.90;99.90;;;;;;5073102;28;20268;-73
2022/06/14 06:13:30;;;;;;;6.45;2.22;;;25.00;99.90;;;;;;5079629;28;20203;-73
2022/06/14 06:16:05;;;;;;;8.43;2.38;;;26.40;99.90;;;;;;5079879;28;20172;-72
2022/06/14 06:18:40;;;;;;;4.65;2.13;;;26.40;99.90;;;;;;5073884;28;20179;-73
2022/06/14 06:21:19;;;;;;;4.18;2.22;;;25.00;99.90;;;;;;5093606;28;20171;-72
2022/06/14 06:23:54;;;;;;;3.88;1.80;;;24.60;99.90;;;;;;5093691;28;20174;-70
2022/06/14 06:26:22;;;;;;;4.63;2.17;;;23.40;99.90;;;;;;5109871;28;20254;-71
2022/06/14 06:28:56;;;;;;;5.97;1.88;;;23.40;99.90;;;;;;5098277;28;20238;-72
2022/06/14 06:31:29;;;;;;;2.97;1.83;;;24.70;99.90;;;;;;5105164;28;20595;-71
2022/06/14 06:33:57;;;;;;;2.47;1.73;;;25.30;99.90;;;;;;5105524;28;20186;-71
2022/06/14 06:36:27;;;;;;;1.65;1.52;;;25.30;99.90;;;;;;5096824;28;20164;-73
2022/06/14 06:39:07;;;;;;;7.05;2.20;;;25.60;99.90;;;;;;5112490;28;20205;-72
2022/06/14 06:41:50;;;;;;;2.15;1.40;;;25.90;99.90;;;;;;5103849;28;20179;-71
2022/06/14 06:44:45;;;;;;;3.08;1.20;;;25.10;99.90;;;;;;5109040;28;20222;-71
2022/06/14 06:47:22;;;;;;;2.42;1.42;;;23.20;99.90;;;;;;5061134;28;20210;-72
2022/06/14 06:50:12;;;;;;;2.58;1.48;;;23.60;99.90;;;;;;5101309;28;20650;-70
2022/06/14 06:52:49;;;;;;;4.13;1.67;;;24.50;99.90;;;;;;5107587;28;20210;-71
2022/06/14 06:55:53;;;;;;;5.75;1.73;;;24.50;99.90;;;;;;5100551;28;20170;-70
2022/06/14 06:58:25;;;;;;;4.03;1.50;;;26.50;99.90;;;;;;5093144;28;20291;-70
2022/06/14 07:00:54;;;;;;;4.10;1.70;;;24.50;99.90;;;;;;5108189;28;20302;-72
2022/06/14 07:03:24;;;;;;;2.78;1.50;;;24.60;99.90;;;;;;5099585;28;20175;-70
2022/06/14 07:05:53;;;;;;;3.45;1.70;;;25.20;99.90;;;;;;5090511;28;20192;-71
2022/06/14 07:08:49;;;;;;;3.00;1.73;;;25.20;99.90;;;;;;5098545;28;20203;-72
2022/06/14 07:11:20;;;;;;;4.22;1.75;;;24.70;99.90;;;;;;5091251;28;20188;-72
2022/06/14 07:13:59;;;;;;;3.88;1.40;;;24.90;99.90;;;;;;5104599;28;20229;-71
2022/06/14 07:16:32;;;;;;;3.78;2.20;;;26.40;99.90;;;;;;5084531;28;20175;-72
2022/06/14 07:19:28;;;;;;;3.00;1.70;;;25.90;99.90;;;;;;5091812;28;20182;-70
2022/06/14 07:22:12;;;;;;;3.47;1.45;;;25.10;99.90;;;;;;5092880;28;20255;-71
2022/06/14 07:24:45;;;;;;;3.83;1.65;;;25.50;99.90;;;;;;5090978;28;20180;-71
2022/06/14 07:27:15;;;;;;;3.00;1.70;;;25.80;99.90;;;;;;5094360;28;20648;-72
2022/06/14 07:29:50;;;;;;;2.70;1.50;;;27.20;99.90;;;;;;5106466;28;20186;-73
2022/06/14 07:32:19;;;;;;;1.90;1.38;;;26.70;99.90;;;;;;5082335;28;20196;-72
2022/06/14 07:34:45;;;;;;;3.80;1.33;;;25.30;99.90;;;;;;5079410;28;20189;-71
2022/06/14 07:37:25;;;;;;;5.53;1.80;;;25.40;99.90;;;;;;5089785;28;20186;-72
2022/06/14 07:39:53;;;;;;;3.17;1.70;;;26.30;99.90;;;;;;5083727;28;20196;-70
2022/06/14 07:42:25;;;;;;;5.50;1.90;;;25.40;99.90;;;;;;5099181;28;20172;-71
2022/06/14 07:45:04;;;;;;;2.45;1.45;;;24.90;99.90;;;;;;5096997;28;20175;-71
2022/06/14 07:47:48;;;;;;;4.22;1.77;;;24.00;99.90;;;;;;5102197;28;20179;-72
2022/06/14 07:50:16;;;;;;;5.90;1.88;;;24.50;99.90;;;;;;5105487;28;20183;-71
2022/06/14 07:52:47;;;;;;;5.05;1.90;;;23.90;99.90;;;;;;5095744;28;20264;-70
2022/06/14 07:55:22;;;;;;;4.90;1.90;;;25.10;99.90;;;;;;5101186;28;20225;-72
2022/06/14 07:57:56;;;;;;;3.13;1.52;;;25.50;99.90;;;;;;5081215;28;20229;-74
2022/06/14 08:03:28;;;;;;;3.47;1.58;;;25.60;99.90;;;;;;5094216;28;20291;-72
2022/06/14 08:05:57;;;;;;;3.75;1.77;;;25.70;99.90;;;;;;5098636;28;20243;-72
2022/06/14 08:08:31;;;;;;;2.63;1.48;;;27.20;99.90;;;;;;5092002;28;20176;-73
2022/06/14 08:11:03;;;;;;;2.47;1.50;;;28.00;92.20;;;;;;5087258;28;20159;-72
2022/06/14 08:13:35;;;;;;;4.25;1.63;;;27.40;90.50;;;;;;5091277;28;20204;-73
2022/06/14 08:16:03;;;;;;;3.83;2.00;;;26.00;93.10;;;;;;5088270;28;20308;-74
2022/06/14 08:18:42;;;;;;;3.47;1.95;;;25.60;97.40;;;;;;5081135;28;20172;-74
2022/06/14 08:21:23;;;;;;;2.22;1.90;;;27.10;95.40;;;;;;5085400;28;20597;-73
2022/06/14 08:24:16;;;;;;;3.95;2.00;;;26.80;91.40;;;;;;5091939;28;20168;-73
2022/06/14 08:27:03;;;;;;;3.35;1.90;;;27.60;92.40;;;;;;5096148;28;20171;-74
2022/06/14 08:29:34;;;;;;;3.25;1.60;;;27.60;88.80;;;;;;5080615;28;20706;-72
2022/06/14 08:32:21;;;;;;;2.22;1.70;;;26.20;87.40;;;;;;5089030;28;20191;-74
2022/06/14 08:35:05;;;;;;;4.93;1.83;;;25.90;91.40;;;;;;5081491;28;20167;-72
2022/06/14 08:37:52;;;;;;;4.50;2.03;;;25.40;93.40;;;;;;5097903;28;20177;-70
2022/06/14 08:40:23;;;;;;;4.85;2.20;;;23.40;99.90;;;;;;5088315;28;20267;-73
2022/06/14 08:42:53;;;;;;;3.95;2.05;;;24.20;99.90;;;;;;5083132;28;20168;-72
2022/06/14 08:45:46;;;;;;;3.70;1.88;;;25.70;99.90;;;;;;5085767;28;20304;-72
2022/06/14 08:48:21;;;;;;;3.83;1.80;;;26.90;99.90;;;;;;5089256;28;20180;-74
2022/06/14 08:51:10;;;;;;;3.25;1.80;;;29.00;90.90;;;;;;5081782;28;20174;-72
2022/06/14 08:54:02;;;;;;;4.43;1.83;;;28.80;79.50;;;;;;5094012;28;20207;-73
2022/06/14 08:56:46;;;;;;;2.67;2.05;;;28.20;77.70;;;;;;5102527;28;20176;-71
2022/06/14 08:59:42;;;;;;;3.65;1.90;;;27.10;83.60;;;;;;5079841;28;20191;-71
2022/06/14 09:02:32;;;;;;;3.50;1.83;;;26.50;89.60;;;;;;5085408;28;20227;-74
2022/06/14 09:05:35;;;;;;;3.60;2.28;;;27.20;92.00;;;;;;5087244;28;20534;-72
2022/06/14 09:08:28;;;;;;;2.70;1.73;;;27.30;89.70;;;;;;5082061;28;20274;-73
2022/06/14 09:11:19;;;;;;;3.67;1.95;;;28.40;83.60;;;;;;5081939;28;20179;-71
2022/06/14 09:14:24;;;;;;;4.57;2.63;;;25.40;87.90;;;;;;5077883;28;20216;-71
2022/06/14 09:17:29;;;;;;;4.25;1.83;;;25.80;93.60;;;;;;5089229;28;20284;-71
2022/06/14 09:20:16;;;;;;;3.08;1.23;;;26.60;93.50;;;;;;5093748;28;20237;-72
2022/06/14 09:23:05;;;;;;;2.15;1.77;;;26.60;91.30;;;;;;5112028;28;20176;-70
2022/06/14 09:25:49;;;;;;;2.15;1.50;;;27.40;86.70;;;;;;5094966;28;20172;-70
2022/06/14 09:28:49;;;;;;;3.30;1.75;;;26.80;81.20;;;;;;5087994;28;20502;-72
2022/06/14 09:31:34;;;;;;;2.17;1.70;;;27.10;89.60;;;;;;5090695;28;20880;-71
2022/06/14 09:34:05;;;;;;;3.17;1.83;;;28.50;78.20;;;;;;5094969;28;20172;-71
2022/06/14 09:36:53;;;;;;;3.08;2.05;;;27.20;74.70;;;;;;5092990;28;20176;-71
2022/06/14 09:39:48;;;;;;;3.00;1.60;;;26.80;88.70;;;;;;5106280;27;20598;-72
2022/06/14 09:42:38;;;;;;;1.80;1.58;;;26.40;84.20;;;;;;5051303;28;20203;-72
2022/06/14 09:45:50;;;;;;;2.97;1.85;;;25.80;90.50;;;;;;5085651;28;20531;-71
2022/06/14 09:48:46;;;;;;;4.47;1.90;;;26.10;90.50;;;;;;5097977;28;20168;-70
2022/06/14 09:51:36;;;;;;;5.95;1.88;;;25.70;91.50;;;;;;5085419;28;20898;-70
2022/06/14 09:54:16;;;;;;;3.38;1.55;;;26.10;94.20;;;;;;5087714;28;20196;-71
2022/06/14 09:57:03;;;;;;;2.60;1.58;;;26.30;91.70;;;;;;5089772;28;20177;-72
2022/06/14 10:00:21;;;;;;;3.80;1.67;;;27.00;87.10;;;;;;5087405;28;20179;-70
2022/06/14 10:03:08;;;;;;;3.17;1.75;;;23.70;94.80;;;;;;5059002;28;20253;-71
2022/06/14 10:05:33;;;;;;;4.22;1.92;;;22.80;99.90;;;;;;5080172;28;20314;-71
2022/06/14 10:08:10;;;;;;;2.22;1.70;;;23.60;99.90;;;;;;5065036;28;20703;-71
2022/06/14 10:11:11;;;;;;;3.03;1.95;;;24.20;99.90;;;;;;5069848;28;20252;-70
2022/06/14 10:14:18;;;;;;;4.13;1.77;;;24.00;99.90;;;;;;5065796;28;20308;-70
2022/06/14 10:17:02;;;;;;;3.30;1.70;;;23.40;99.90;;;;;;5066620;28;20167;-71
2022/06/14 10:19:45;;;;;;;3.63;1.85;;;24.30;99.90;;;;;;5068724;28;20148;-71
2022/06/14 10:22:41;;;;;;;3.03;1.50;;;24.80;99.90;;;;;;5066274;28;20169;-71
2022/06/14 10:25:26;;;;;;;4.60;3.05;;;25.60;99.90;;;;;;5065559;28;20581;-70
2022/06/14 10:28:12;;;;;;;6.47;2.50;;;24.00;99.90;;;;;;5086818;28;20255;-72
2022/06/14 10:31:15;;;;;;;3.30;1.73;;;23.40;99.90;;;;;;5076060;28;20172;-71
2022/06/14 10:33:53;;;;;;;2.53;1.83;;;23.20;99.90;;;;;;5082335;28;20207;-71
2022/06/14 10:36:32;;;;;;;3.67;1.65;;;23.10;99.90;;;;;;5088771;28;20168;-71
2022/06/14 10:39:23;;;;;;;4.43;2.00;;;22.90;99.90;;;;;;5078743;28;20178;-70
2022/06/14 10:42:02;;;;;;;4.60;1.70;;;23.20;99.90;;;;;;5079675;28;20176;-70
2022/06/14 10:44:49;;;;;;;4.95;2.10;;;24.90;99.90;;;;;;5090327;28;20246;-70
2022/06/14 10:48:11;;;;;;;3.17;2.55;;;25.10;99.90;;;;;;5081148;28;20197;-71
2022/06/14 10:51:04;;;;;;;3.65;2.30;;;24.90;99.90;;;;;;5034001;28;20181;-70
2022/06/14 10:53:49;;;;;;;4.22;1.70;;;24.20;99.90;;;;;;5040424;28;20300;-70
2022/06/14 10:56:51;;;;;;;2.30;1.75;;;23.40;99.90;;;;;;5049607;28;20296;-71
2022/06/14 10:59:35;;;;;;;3.17;2.13;;;24.10;99.90;;;;;;5039171;28;20180;-71
2022/06/14 11:02:28;;;;;;;5.40;2.83;;;23.80;99.90;;;;;;5035591;28;20217;-71
2022/06/14 11:05:13;;;;;;;4.20;3.55;;;23.90;99.90;;;;;;5035709;28;20185;-70
2022/06/14 11:07:45;;;;;;;3.47;1.92;;;22.90;99.90;;;;;;5039928;28;20714;-70
2022/06/14 11:10:26;;;;;;;2.50;1.90;;;22.50;99.90;;;;;;5041532;28;20496;-70
2022/06/14 11:12:58;;;;;;;3.90;2.55;;;22.40;99.90;;;;;;5022683;28;20205;-71
2022/06/14 11:15:36;;;;;;;5.60;3.13;;;22.60;99.90;;;;;;5040114;28;20178;-70
2022/06/14 11:18:23;;;;;;;3.30;1.88;;;23.20;99.90;;;;;;5045191;28;20177;-71
2022/06/14 11:21:11;;;;;;;3.97;2.15;;;23.10;99.90;;;;;;5047673;28;20214;-72
2022/06/14 11:24:03;;;;;;;3.10;2.10;;;22.90;99.90;;;;;;5081189;28;20255;-72
2022/06/14 11:26:34;;;;;;;3.95;1.75;;;22.40;99.90;;;;;;5086249;28;20267;-70
2022/06/14 11:29:16;;;;;;;3.40;2.00;;;22.60;99.90;;;;;;5079068;28;20176;-71
2022/06/14 11:32:17;;;;;;;2.97;1.67;;;22.30;99.90;;;;;;5081332;28;20372;-70
2022/06/14 11:35:16;;;;;;;4.30;1.80;;;22.80;99.90;;;;;;5058230;28;20192;-69
2022/06/14 11:38:22;;;;;;;4.63;2.10;;;22.80;99.90;;;;;;5080777;28;20181;-69
2022/06/14 11:40:54;;;;;;;4.00;1.90;;;23.20;99.90;;;;;;5060134;28;20729;-70
2022/06/14 11:43:49;;;;;;;2.70;1.98;;;24.10;99.90;;;;;;5083729;28;20230;-69
2022/06/14 11:46:42;;;;;;;4.35;1.67;;;23.10;99.90;;;;;;5082063;28;20169;-70
2022/06/14 11:49:14;;;;;;;1.98;1.73;;;23.80;99.90;;;;;;5069227;28;20175;-70
2022/06/14 11:52:08;;;;;;;3.53;1.90;;;24.30;99.90;;;;;;5081257;28;20176;-70
2022/06/14 11:55:23;;;;;;;3.83;1.90;;;24.30;99.90;;;;;;5089171;28;20188;-69
2022/06/14 11:57:55;;;;;;;4.43;2.10;;;23.10;99.90;;;;;;5084654;28;20182;-68
2022/06/14 12:00:30;;;;;;;4.78;2.10;;;22.40;99.90;;;;;;5089145;28;20267;-69
2022/06/14 12:03:19;;;;;;;4.78;2.60;;;22.90;99.90;;;;;;5096849;28;20283;-69
2022/06/14 12:06:00;;;;;;;4.45;2.22;;;22.30;99.90;;;;;;5071038;28;20183;-68
2022/06/14 12:08:53;;;;;;;3.50;2.10;;;22.40;99.90;;;;;;5108806;28;20202;-69
2022/06/14 12:11:26;;;;;;;4.60;2.22;;;22.30;99.90;;;;;;5100546;28;20224;-69
2022/06/14 12:14:11;;;;;;;4.40;2.10;;;22.40;99.90;;;;;;5098858;28;20260;-69
2022/06/14 12:17:13;;;;;;;8.18;1.98;;;22.60;99.90;;;;;;5109306;28;20171;-69
2022/06/14 12:19:41;;;;;;;5.00;2.10;;;23.00;99.90;;;;;;5040543;28;20192;-69
2022/06/14 12:22:28;;;;;;;2.80;1.60;;;22.20;99.90;;;;;;5032324;28;20364;-69
2022/06/14 12:27:51;;;;;;;3.55;2.53;;;22.60;99.90;;;;;;5037364;28;20231;-68
2022/06/14 12:30:18;;;;;;;4.57;1.85;;;22.60;99.90;;;;;;5045328;28;20185;-68
2022/06/14 12:33:13;;;;;;;4.80;2.00;;;22.20;99.90;;;;;;5049239;28;20209;-69
2022/06/14 12:35:54;;;;;;;7.13;3.25;;;22.60;99.90;;;;;;5032612;28;20239;-68
2022/06/14 12:38:31;;;;;;;4.00;1.90;;;22.50;99.90;;;;;;5046418;28;20169;-69
2022/06/14 12:41:07;;;;;;;4.60;2.00;;;22.60;99.90;;;;;;5035324;28;20264;-68
2022/06/14 12:43:55;;;;;;;3.72;1.77;;;22.80;99.90;;;;;;5038748;28;20195;-68
2022/06/14 12:46:26;;;;;;;2.53;1.75;;;22.90;99.90;;;;;;5045615;28;20177;-69
2022/06/14 12:49:13;;;;;;;4.38;2.13;;;22.70;99.90;;;;;;5032947;28;20188;-68
2022/06/14 12:51:54;;;;;;;3.70;2.17;;;22.80;99.90;;;;;;5037787;28;20518;-68
2022/06/14 12:54:56;;;;;;;6.55;2.45;;;22.70;99.90;;;;;;5053884;28;20192;-69
2022/06/14 12:57:33;;;;;;;5.40;2.00;;;22.60;99.90;;;;;;5080176;28;20213;-68
2022/06/14 13:00:29;;;;;;;3.38;2.00;;;22.40;99.90;;;;;;5106017;28;20193;-70
2022/06/14 13:03:18;;;;;;;2.85;2.08;;;22.80;99.90;;;;;;5082353;28;20678;-68
2022/06/14 13:05:52;;;;;;;6.70;2.58;;;23.00;99.90;;;;;;5094766;28;20221;-69
2022/06/14 13:08:56;;;;;;;6.10;3.30;;;23.40;99.90;;;;;;5095714;28;20191;-67
2022/06/14 13:11:34;;;;;;;8.63;2.35;;;22.70;99.90;;;;;;5088575;28;20271;-69
2022/06/14 13:14:29;;;;;;;2.78;1.95;;;22.50;99.90;;;;;;5096798;28;20682;-69
2022/06/14 13:17:20;;;;;;;4.30;2.20;;;22.50;99.90;;;;;;5082019;28;20163;-69
2022/06/14 13:20:01;;;;;;;5.32;1.70;;;22.50;99.90;;;;;;5098062;28;20176;-69
2022/06/14 13:22:46;;;;;;;3.90;1.95;;;22.50;99.90;;;;;;5100031;28;20271;-69
2022/06/14 13:25:22;;;;;;;5.05;2.30;;;22.60;99.90;;;;;;5094343;28;20277;-69
2022/06/14 13:28:03;;;;;;;4.00;2.30;;;22.80;99.90;;;;;;5094532;28;20175;-70
2022/06/14 13:30:52;;;;;;;3.15;2.00;;;22.10;99.90;;;;;;5106808;28;20177;-69
2022/06/14 13:33:27;;;;;;;3.38;1.98;;;22.00;99.90;;;;;;5102007;28;20252;-69
2022/06/14 13:36:09;;;;;;;6.28;2.25;;;22.20;99.90;;;;;;5100626;28;20175;-69
2022/06/14 13:38:50;;;;;;;3.38;1.80;;;22.10;99.90;;;;;;5109810;28;20175;-70
2022/06/14 13:41:18;;;;;;;3.55;1.98;;;22.10;99.90;;;;;;5098565;28;20180;-69
2022/06/14 13:44:07;;;;;;;3.47;1.92;;;22.40;99.90;;;;;;5098956;28;20203;-69
2022/06/14 13:47:00;;;;;;;3.95;2.33;;;22.30;99.90;;;;;;5098086;28;20211;-70
2022/06/14 13:49:25;;;;;;;3.38;2.00;;;22.20;99.90;;;;;;5094561;28;20184;-70
2022/06/14 13:51:58;;;;;;;2.38;1.77;;;22.50;99.90;;;;;;5107093;28;20262;-69
2022/06/14 13:54:41;;;;;;;3.38;1.73;;;22.70;99.90;;;;;;5115217;28;20210;-70
2022/06/14 13:57:13;;;;;;;3.88;1.90;;;22.80;99.90;;;;;;5113893;28;20177;-69
2022/06/14 13:59:43;;;;;;;4.05;2.20;;;22.90;99.90;;;;;;5078500;28;20644;-70
2022/06/14 14:02:35;;;;;;;4.05;1.77;;;22.70;99.90;;;;;;5074215;28;20290;-70
2022/06/14 14:05:10;;;;;;;4.97;1.90;;;22.60;99.90;;;;;;5072889;28;20173;-70
2022/06/14 14:07:45;;;;;;;7.03;2.15;;;22.50;99.90;;;;;;5078637;28;20187;-69
2022/06/14 14:10:10;;;;;;;5.00;1.95;;;22.40;99.90;;;;;;5093738;28;20168;-70
2022/06/14 14:12:48;;;;;;;1.92;1.73;;;22.40;99.90;;;;;;5093228;28;20214;-70